createdAt,value
2017-08-04T00:00:05.429Z,57.80
2017-08-04T00:01:05.424Z,57.99
2017-08-04T00:02:05.452Z,57.32
2017-08-04T00:03:05.409Z,58.09
2017-08-04T00:04:05.413Z,57.42
2017-08-04T00:05:05.395Z,57.51
2017-08-04T00:06:05.685Z,57.13
2017-08-04T00:07:05.382Z,56.16
2017-08-04T00:08:05.389Z,56.55
2017-08-04T00:09:05.379Z,56.74
2017-08-04T00:10:05.358Z,57.22
2017-08-04T00:11:05.353Z,57.03
2017-08-04T00:12:05.681Z,57.51
2017-08-04T00:13:05.352Z,57.51
2017-08-04T00:14:05.345Z,57.60
2017-08-04T00:15:05.338Z,57.51
2017-08-04T00:16:05.332Z,57.51
2017-08-04T00:17:05.317Z,58.09
2017-08-04T00:18:05.349Z,57.99
2017-08-04T00:19:05.323Z,58.28
2017-08-04T00:20:05.304Z,57.99
2017-08-04T00:21:05.308Z,57.99
2017-08-04T00:22:05.288Z,57.99
2017-08-04T00:23:05.495Z,57.80
2017-08-04T00:24:05.273Z,57.70
2017-08-04T00:25:05.278Z,58.37
2017-08-04T00:26:05.259Z,58.18
2017-08-04T00:27:05.253Z,58.18
2017-08-04T00:28:05.257Z,58.09
2017-08-04T00:29:05.274Z,58.09
2017-08-04T00:30:05.231Z,58.18
2017-08-04T00:31:05.225Z,57.80
2017-08-04T00:32:05.227Z,57.99
2017-08-04T00:33:05.215Z,57.80
2017-08-04T00:34:05.508Z,57.99
2017-08-04T00:35:05.214Z,57.90
2017-08-04T00:36:05.192Z,58.09
2017-08-04T00:37:05.188Z,58.18
2017-08-04T00:38:05.182Z,58.18
2017-08-04T00:39:05.173Z,57.90
2017-08-04T00:40:05.507Z,57.97
2017-08-04T00:41:05.159Z,58.45
2017-08-04T00:42:05.152Z,58.35
2017-08-04T00:43:05.143Z,58.76
2017-08-04T00:44:05.144Z,59.02
2017-08-04T00:45:05.129Z,57.10
2017-08-04T00:46:05.157Z,57.77
2017-08-04T00:47:05.116Z,58.25
2017-08-04T00:48:05.111Z,58.54
2017-08-04T00:49:05.332Z,58.42
2017-08-04T00:50:05.093Z,58.80
2017-08-04T00:51:05.088Z,58.99
2017-08-04T00:52:05.079Z,58.99
2017-08-04T00:53:05.086Z,58.89
2017-08-04T00:54:05.068Z,59.66
2017-08-04T00:55:05.396Z,60.24
2017-08-04T00:56:05.052Z,59.95
2017-08-04T00:57:05.058Z,59.86
2017-08-04T00:58:05.043Z,60.14
2017-08-04T00:59:05.034Z,60.43
2017-08-04T01:00:05.031Z,60.05
2017-08-04T01:01:05.058Z,59.95
2017-08-04T01:02:05.015Z,60.05
2017-08-04T01:03:05.005Z,60.43
2017-08-04T01:04:04.997Z,60.91
2017-08-04T01:05:04.993Z,60.14
2017-08-04T01:06:05.340Z,60.14
2017-08-04T01:07:04.978Z,60.63
2017-08-04T01:08:04.974Z,60.24
2017-08-04T01:09:04.967Z,60.34
2017-08-04T01:10:04.972Z,59.73
2017-08-04T01:11:04.950Z,60.21
2017-08-04T01:12:05.332Z,60.63
2017-08-04T01:13:04.941Z,60.72
2017-08-04T01:14:04.928Z,60.60
2017-08-04T01:15:04.920Z,60.78
2017-08-04T01:16:04.914Z,60.50
2017-08-04T01:17:04.909Z,60.63
2017-08-04T01:18:05.351Z,60.31
2017-08-04T01:19:04.900Z,60.31
2017-08-04T01:20:04.892Z,60.72
2017-08-04T01:21:04.883Z,60.91
2017-08-04T01:22:04.871Z,60.34
2017-08-04T01:23:04.864Z,60.72
2017-08-04T01:24:05.208Z,60.82
2017-08-04T01:25:04.849Z,60.34
2017-08-04T01:26:04.846Z,60.34
2017-08-04T01:27:04.833Z,60.82
2017-08-04T01:28:04.830Z,60.63
2017-08-04T01:29:04.824Z,60.69
2017-08-04T01:30:04.844Z,61.11
2017-08-04T01:31:04.819Z,60.78
2017-08-04T01:32:04.798Z,60.53
2017-08-04T01:33:04.797Z,60.82
2017-08-04T01:34:04.789Z,60.78
2017-08-04T01:35:05.094Z,60.40
2017-08-04T01:36:04.779Z,60.63
2017-08-04T01:37:04.763Z,60.82
2017-08-04T01:38:04.759Z,60.24
2017-08-04T01:39:04.748Z,60.78
2017-08-04T01:40:04.759Z,60.24
2017-08-04T01:41:05.035Z,60.78
2017-08-04T01:42:04.730Z,60.63
2017-08-04T01:43:04.727Z,60.21
2017-08-04T01:44:04.715Z,60.69
2017-08-04T01:45:04.716Z,60.60
2017-08-04T01:46:04.704Z,61.17
2017-08-04T01:47:04.728Z,60.60
2017-08-04T01:48:04.684Z,60.60
2017-08-04T01:49:04.676Z,60.60
2017-08-04T01:50:04.678Z,60.69
2017-08-04T01:51:05.039Z,60.98
2017-08-04T01:52:04.657Z,60.78
2017-08-04T01:53:04.648Z,60.50
2017-08-04T01:54:04.640Z,60.78
2017-08-04T01:55:04.635Z,60.40
2017-08-04T01:56:04.625Z,61.17
2017-08-04T01:57:04.951Z,61.08
2017-08-04T01:58:04.614Z,60.98
2017-08-04T01:59:04.604Z,61.27
2017-08-04T02:00:04.601Z,61.65
2017-08-04T02:01:04.593Z,61.55
2017-08-04T02:02:04.591Z,61.36
2017-08-04T02:03:04.883Z,61.36
2017-08-04T02:04:04.573Z,61.36
2017-08-04T02:05:04.561Z,61.46
2017-08-04T02:06:04.556Z,61.55
2017-08-04T02:07:04.548Z,61.46
2017-08-04T02:08:04.540Z,61.36
2017-08-04T02:09:04.770Z,61.84
2017-08-04T02:10:04.524Z,61.65
2017-08-04T02:11:04.517Z,62.04
2017-08-04T02:12:04.510Z,61.94
2017-08-04T02:13:04.503Z,61.46
2017-08-04T02:14:04.497Z,61.17
2017-08-04T02:15:04.947Z,61.36
2017-08-04T02:16:04.480Z,61.08
2017-08-04T02:17:04.474Z,61.36
2017-08-04T02:18:04.467Z,61.36
2017-08-04T02:19:04.461Z,61.46
2017-08-04T02:20:04.455Z,61.36
2017-08-04T02:21:04.886Z,61.75
2017-08-04T02:22:04.438Z,61.84
2017-08-04T02:23:04.436Z,62.04
2017-08-04T02:24:04.421Z,61.75
2017-08-04T02:25:04.425Z,61.65
2017-08-04T02:26:04.406Z,61.84
2017-08-04T02:27:04.860Z,61.65
2017-08-04T02:28:04.396Z,61.46
2017-08-04T02:29:04.388Z,61.17
2017-08-04T02:30:04.387Z,60.78
2017-08-04T02:31:04.371Z,60.60
2017-08-04T02:32:04.365Z,61.27
2017-08-04T02:33:04.803Z,60.78
2017-08-04T02:34:04.350Z,61.08
2017-08-04T02:35:04.343Z,61.24
2017-08-04T02:36:04.335Z,61.05
2017-08-04T02:37:04.337Z,60.95
2017-08-04T02:38:04.320Z,61.14
2017-08-04T02:39:04.648Z,61.43
2017-08-04T02:40:04.305Z,61.24
2017-08-04T02:41:04.308Z,61.05
2017-08-04T02:42:04.291Z,61.43
2017-08-04T02:43:04.288Z,61.33
2017-08-04T02:44:04.275Z,61.72
2017-08-04T02:45:04.299Z,61.81
2017-08-04T02:46:04.257Z,61.91
2017-08-04T02:47:04.252Z,62.10
2017-08-04T02:48:04.244Z,62.01
2017-08-04T02:49:04.603Z,62.10
2017-08-04T02:50:04.230Z,62.19
2017-08-04T02:51:04.222Z,61.52
2017-08-04T02:52:04.216Z,61.81
2017-08-04T02:53:04.216Z,61.91
2017-08-04T02:54:04.198Z,61.91
2017-08-04T02:55:04.235Z,61.62
2017-08-04T02:56:04.186Z,62.01
2017-08-04T02:57:04.180Z,61.72
2017-08-04T02:58:04.173Z,61.62
2017-08-04T02:59:04.179Z,62.01
2017-08-04T03:00:04.465Z,61.81
2017-08-04T03:01:04.147Z,61.81
2017-08-04T03:02:04.149Z,61.81
2017-08-04T03:03:04.133Z,61.91
2017-08-04T03:04:04.122Z,62.19
2017-08-04T03:05:04.120Z,61.81
2017-08-04T03:06:04.422Z,61.62
2017-08-04T03:07:04.127Z,61.72
2017-08-04T03:08:04.096Z,62.48
2017-08-04T03:09:04.095Z,62.19
2017-08-04T03:10:04.080Z,62.19
2017-08-04T03:11:04.073Z,62.58
2017-08-04T03:12:04.324Z,62.19
2017-08-04T03:13:04.061Z,62.13
2017-08-04T03:14:04.049Z,61.75
2017-08-04T03:15:04.044Z,61.43
2017-08-04T03:16:04.045Z,62.10
2017-08-04T03:17:04.032Z,61.81
2017-08-04T03:18:04.413Z,62.39
2017-08-04T03:19:04.011Z,62.39
2017-08-04T03:20:04.021Z,62.39
2017-08-04T03:21:03.997Z,62.10
2017-08-04T03:22:03.990Z,62.77
2017-08-04T03:23:03.981Z,62.48
2017-08-04T03:24:04.197Z,62.48
2017-08-04T03:25:03.971Z,62.39
2017-08-04T03:26:03.961Z,62.39
2017-08-04T03:27:03.962Z,62.39
2017-08-04T03:28:03.944Z,62.87
2017-08-04T03:29:03.938Z,62.77
2017-08-04T03:30:04.257Z,63.06
2017-08-04T03:31:03.921Z,63.25
2017-08-04T03:32:03.936Z,62.87
2017-08-04T03:33:03.907Z,63.54
2017-08-04T03:34:03.906Z,63.54
2017-08-04T03:35:03.892Z,62.87
2017-08-04T03:36:04.099Z,63.35
2017-08-04T03:37:03.879Z,63.54
2017-08-04T03:38:03.866Z,63.92
2017-08-04T03:39:03.857Z,63.64
2017-08-04T03:40:03.852Z,63.92
2017-08-04T03:41:03.848Z,63.73
2017-08-04T03:42:04.253Z,63.54
2017-08-04T03:43:03.829Z,63.54
2017-08-04T03:44:03.824Z,63.92
2017-08-04T03:45:03.815Z,64.02
2017-08-04T03:46:03.807Z,63.64
2017-08-04T03:47:03.800Z,64.12
2017-08-04T03:48:04.099Z,63.54
2017-08-04T03:49:03.783Z,63.35
2017-08-04T03:50:03.777Z,63.64
2017-08-04T03:51:03.765Z,63.83
2017-08-04T03:52:03.761Z,64.12
2017-08-04T03:53:03.756Z,64.22
2017-08-04T03:54:04.193Z,64.59
2017-08-04T03:55:03.743Z,64.59
2017-08-04T03:56:03.730Z,64.12
2017-08-04T03:57:03.724Z,64.22
2017-08-04T03:58:03.716Z,64.59
2017-08-04T03:59:03.706Z,64.12
2017-08-04T04:00:04.001Z,64.79
2017-08-04T04:01:03.695Z,64.09
2017-08-04T04:02:03.687Z,63.99
2017-08-04T04:03:03.679Z,64.50
2017-08-04T04:04:03.678Z,64.66
2017-08-04T04:05:03.663Z,64.02
2017-08-04T04:06:04.010Z,64.28
2017-08-04T04:07:03.649Z,64.28
2017-08-04T04:08:03.643Z,64.18
2017-08-04T04:09:03.636Z,64.37
2017-08-04T04:10:03.621Z,63.99
2017-08-04T04:11:03.629Z,64.22
2017-08-04T04:12:03.976Z,64.37
2017-08-04T04:13:03.602Z,64.85
2017-08-04T04:14:03.590Z,64.76
2017-08-04T04:15:03.592Z,64.95
2017-08-04T04:16:03.578Z,64.47
2017-08-04T04:17:03.570Z,64.47
2017-08-04T04:18:03.938Z,64.28
2017-08-04T04:19:03.556Z,64.76
2017-08-04T04:20:03.544Z,64.56
2017-08-04T04:21:03.541Z,64.76
2017-08-04T04:22:03.531Z,64.47
2017-08-04T04:23:03.524Z,64.50
2017-08-04T04:24:03.887Z,64.37
2017-08-04T04:25:03.513Z,64.47
2017-08-04T04:26:03.500Z,64.76
2017-08-04T04:27:03.492Z,64.47
2017-08-04T04:28:03.485Z,64.47
2017-08-04T04:29:03.477Z,64.37
2017-08-04T04:30:03.843Z,64.18
2017-08-04T04:31:03.462Z,64.66
2017-08-04T04:32:03.462Z,63.99
2017-08-04T04:33:03.447Z,64.76
2017-08-04T04:34:03.437Z,64.56
2017-08-04T04:35:03.431Z,64.76
2017-08-04T04:36:04.591Z,64.50
2017-08-04T04:37:03.418Z,64.56
2017-08-04T04:38:03.404Z,64.76
2017-08-04T04:39:03.398Z,64.28
2017-08-04T04:40:03.397Z,64.85
2017-08-04T04:41:03.384Z,64.76
2017-08-04T04:42:03.413Z,64.66
2017-08-04T04:43:03.371Z,64.85
2017-08-04T04:44:03.361Z,64.56
2017-08-04T04:45:03.655Z,64.95
2017-08-04T04:46:03.342Z,64.76
2017-08-04T04:47:03.337Z,64.76
2017-08-04T04:48:03.331Z,64.76
2017-08-04T04:49:03.331Z,64.76
2017-08-04T04:50:03.313Z,65.33
2017-08-04T04:51:03.338Z,65.33
2017-08-04T04:52:03.295Z,64.76
2017-08-04T04:53:03.301Z,64.76
2017-08-04T04:54:03.282Z,64.95
2017-08-04T04:55:04.032Z,64.56
2017-08-04T04:56:03.280Z,64.59
2017-08-04T04:57:03.262Z,64.85
2017-08-04T04:58:03.252Z,64.50
2017-08-04T04:59:03.239Z,65.08
2017-08-04T05:00:04.535Z,64.98
2017-08-04T05:01:03.228Z,64.89
2017-08-04T05:02:03.227Z,65.27
2017-08-04T05:03:03.212Z,64.89
2017-08-04T05:04:03.205Z,64.50
2017-08-04T05:05:03.200Z,64.59
2017-08-04T05:06:03.630Z,64.59
2017-08-04T05:07:03.196Z,64.59
2017-08-04T05:08:03.171Z,64.40
2017-08-04T05:09:03.167Z,64.98
2017-08-04T05:10:03.166Z,64.79
2017-08-04T05:11:03.149Z,64.69
2017-08-04T05:12:03.543Z,64.22
2017-08-04T05:13:03.137Z,64.40
2017-08-04T05:14:03.124Z,64.12
2017-08-04T05:15:03.120Z,64.12
2017-08-04T05:16:03.120Z,64.59
2017-08-04T05:17:03.106Z,64.98
2017-08-04T05:18:03.137Z,64.59
2017-08-04T05:19:03.090Z,64.59
2017-08-04T05:20:03.084Z,64.50
2017-08-04T05:21:03.432Z,64.40
2017-08-04T05:22:03.066Z,64.59
2017-08-04T05:23:03.070Z,64.40
2017-08-04T05:24:03.051Z,64.59
2017-08-04T05:25:03.055Z,64.59
2017-08-04T05:26:03.037Z,64.22
2017-08-04T05:27:03.363Z,64.69
2017-08-04T05:28:03.022Z,64.40
2017-08-04T05:29:03.019Z,63.73
2017-08-04T05:30:03.009Z,64.02
2017-08-04T05:31:03.002Z,64.98
2017-08-04T05:32:03.548Z,64.50
2017-08-04T05:33:03.349Z,64.22
2017-08-04T05:34:02.977Z,64.69
2017-08-04T05:35:02.969Z,64.34
2017-08-04T05:36:02.964Z,64.31
2017-08-04T05:37:02.960Z,64.02
2017-08-04T05:38:02.944Z,64.22
2017-08-04T05:39:02.976Z,64.31
2017-08-04T05:40:02.930Z,63.73
2017-08-04T05:41:02.961Z,64.50
2017-08-04T05:42:02.916Z,64.79
2017-08-04T05:43:02.906Z,64.40
2017-08-04T05:44:02.900Z,64.02
2017-08-04T05:45:02.897Z,63.73
2017-08-04T05:46:03.189Z,64.50
2017-08-04T05:47:02.878Z,64.63
2017-08-04T05:48:23.882Z,64.43
2017-08-04T05:49:02.866Z,64.63
2017-08-04T05:50:02.863Z,64.25
2017-08-04T05:51:02.857Z,64.05
2017-08-04T05:52:02.871Z,63.96
2017-08-04T05:53:02.834Z,64.05
2017-08-04T05:54:02.826Z,64.15
2017-08-04T05:55:02.827Z,64.25
2017-08-04T05:56:02.846Z,64.05
2017-08-04T05:57:02.805Z,64.34
2017-08-04T05:58:02.796Z,63.67
2017-08-04T05:59:02.791Z,64.15
2017-08-04T06:00:02.781Z,63.76
2017-08-04T06:01:03.157Z,64.05
2017-08-04T06:02:02.766Z,64.43
2017-08-04T06:03:02.761Z,63.96
2017-08-04T06:04:02.756Z,64.63
2017-08-04T06:05:02.742Z,64.82
2017-08-04T06:06:02.737Z,64.53
2017-08-04T06:07:02.765Z,64.82
2017-08-04T06:08:02.726Z,64.63
2017-08-04T06:09:02.719Z,64.53
2017-08-04T06:10:02.718Z,64.34
2017-08-04T06:11:03.169Z,64.72
2017-08-04T06:12:02.702Z,64.53
2017-08-04T06:13:02.684Z,63.96
2017-08-04T06:14:02.678Z,64.82
2017-08-04T06:15:02.671Z,64.92
2017-08-04T06:16:02.662Z,64.05
2017-08-04T06:17:02.892Z,64.25
2017-08-04T06:18:02.649Z,63.76
2017-08-04T06:19:02.639Z,64.15
2017-08-04T06:20:02.638Z,64.53
2017-08-04T06:21:02.629Z,63.67
2017-08-04T06:22:02.626Z,63.76
2017-08-04T06:23:02.931Z,63.28
2017-08-04T06:24:02.609Z,63.96
2017-08-04T06:25:02.596Z,63.67
2017-08-04T06:26:02.592Z,64.05
2017-08-04T06:27:02.582Z,63.86
2017-08-04T06:28:02.580Z,64.34
2017-08-04T06:29:02.601Z,64.05
2017-08-04T06:30:02.562Z,64.05
2017-08-04T06:31:02.563Z,64.05
2017-08-04T06:32:02.548Z,63.57
2017-08-04T06:33:02.896Z,64.25
2017-08-04T06:34:02.533Z,64.43
2017-08-04T06:35:02.537Z,64.82
2017-08-04T06:36:02.524Z,64.05
2017-08-04T06:37:02.512Z,64.82
2017-08-04T06:38:02.499Z,64.53
2017-08-04T06:39:02.795Z,63.96
2017-08-04T06:40:02.495Z,64.15
2017-08-04T06:41:02.487Z,63.09
2017-08-04T06:42:02.478Z,63.60
2017-08-04T06:43:02.470Z,63.86
2017-08-04T06:44:02.459Z,63.76
2017-08-04T06:45:02.759Z,63.76
2017-08-04T06:46:02.446Z,63.19
2017-08-04T06:47:02.445Z,63.19
2017-08-04T06:48:02.430Z,64.25
2017-08-04T06:49:02.424Z,63.60
2017-08-04T06:50:02.417Z,64.47
2017-08-04T06:51:02.725Z,64.09
2017-08-04T06:52:02.408Z,64.05
2017-08-04T06:53:02.398Z,64.43
2017-08-04T06:54:02.387Z,63.99
2017-08-04T06:55:02.391Z,64.15
2017-08-04T06:56:02.375Z,64.18
2017-08-04T06:57:02.392Z,63.38
2017-08-04T06:58:02.360Z,62.99
2017-08-04T06:59:02.353Z,63.19
2017-08-04T07:00:02.342Z,63.09
2017-08-04T07:01:02.339Z,62.99
2017-08-04T07:02:02.790Z,63.28
2017-08-04T07:03:02.401Z,62.52
2017-08-04T07:04:02.314Z,63.57
2017-08-04T07:05:02.314Z,63.19
2017-08-04T07:06:02.327Z,62.99
2017-08-04T07:07:02.310Z,62.90
2017-08-04T07:08:02.334Z,63.38
2017-08-04T07:09:02.294Z,63.38
2017-08-04T07:10:03.027Z,62.81
2017-08-04T07:11:03.077Z,63.02
2017-08-04T07:12:03.059Z,63.51
2017-08-04T07:13:02.788Z,63.51
2017-08-04T07:14:02.244Z,63.28
2017-08-04T07:15:02.982Z,62.74
2017-08-04T07:16:03.043Z,62.45
2017-08-04T07:17:02.840Z,62.93
2017-08-04T07:18:03.987Z,64.85
2017-08-04T07:19:03.812Z,63.51
2017-08-04T07:20:02.201Z,62.55
2017-08-04T07:21:02.199Z,63.12
2017-08-04T07:22:02.189Z,62.42
2017-08-04T07:23:02.178Z,63.02
2017-08-04T07:24:02.253Z,63.02
2017-08-04T07:25:02.195Z,62.35
2017-08-04T07:26:02.158Z,63.12
2017-08-04T07:27:03.493Z,62.81
2017-08-04T07:28:02.690Z,63.32
2017-08-04T07:29:02.148Z,63.41
2017-08-04T07:30:02.137Z,63.32
2017-08-04T07:31:02.123Z,63.12
2017-08-04T07:32:02.590Z,63.12
2017-08-04T07:33:02.110Z,63.32
2017-08-04T07:34:02.477Z,63.51
2017-08-04T07:35:02.903Z,62.74
2017-08-04T07:36:03.455Z,62.93
2017-08-04T07:37:02.100Z,62.74
2017-08-04T07:38:02.137Z,62.45
2017-08-04T07:39:02.841Z,62.55
2017-08-04T07:40:02.765Z,62.93
2017-08-04T07:41:02.305Z,63.32
2017-08-04T07:42:04.444Z,62.26
2017-08-04T07:43:02.825Z,61.97
2017-08-04T07:44:02.229Z,62.55
2017-08-04T07:45:02.332Z,62.26
2017-08-04T07:46:02.944Z,61.49
2017-08-04T07:47:02.295Z,62.07
2017-08-04T07:48:02.251Z,61.97
2017-08-04T07:49:02.701Z,61.78
2017-08-04T07:50:02.397Z,61.58
2017-08-04T07:51:02.073Z,61.97
2017-08-04T07:52:02.280Z,62.48
2017-08-04T07:53:02.213Z,61.87
2017-08-04T07:54:02.902Z,61.87
2017-08-04T07:55:02.288Z,61.40
2017-08-04T07:56:02.544Z,61.87
2017-08-04T07:57:02.760Z,61.58
2017-08-04T07:58:02.026Z,62.16
2017-08-04T07:59:02.199Z,60.82
2017-08-04T08:00:03.113Z,61.49
2017-08-04T08:01:02.623Z,61.49
2017-08-04T08:02:02.713Z,62.48
2017-08-04T08:03:01.905Z,61.23
2017-08-04T08:04:02.676Z,60.66
2017-08-04T08:05:02.904Z,62.00
2017-08-04T08:06:02.189Z,61.43
2017-08-04T08:07:01.867Z,61.52
2017-08-04T08:08:02.616Z,61.14
2017-08-04T08:09:02.179Z,59.79
2017-08-04T08:10:01.868Z,60.27
2017-08-04T08:11:01.839Z,60.17
2017-08-04T08:12:03.350Z,60.08
2017-08-04T08:13:02.630Z,60.56
2017-08-04T08:14:01.826Z,59.69
2017-08-04T08:15:05.560Z,60.56
2017-08-04T08:16:02.221Z,59.15
2017-08-04T08:17:03.492Z,60.37
2017-08-04T08:18:03.142Z,58.64
2017-08-04T08:19:02.525Z,58.64
2017-08-04T08:20:02.791Z,59.02
2017-08-04T08:21:03.713Z,58.64
2017-08-04T08:22:01.797Z,58.95
2017-08-04T08:23:01.768Z,58.45
2017-08-04T08:24:02.133Z,57.29
2017-08-04T08:25:02.523Z,57.20
2017-08-04T08:26:02.510Z,58.06
2017-08-04T08:27:01.732Z,57.20
2017-08-04T08:28:01.736Z,58.64
2017-08-04T08:29:01.720Z,58.37
2017-08-04T08:30:02.098Z,57.70
2017-08-04T08:31:01.710Z,57.03
2017-08-04T08:32:01.704Z,56.93
2017-08-04T08:33:01.710Z,57.32
2017-08-04T08:34:04.138Z,57.22
2017-08-04T08:35:03.106Z,57.32
2017-08-04T08:36:04.112Z,58.09
2017-08-04T08:37:01.690Z,58.18
2017-08-04T08:38:01.667Z,57.80
2017-08-04T08:39:01.700Z,57.90
2017-08-04T08:40:01.643Z,57.51
2017-08-04T08:41:02.447Z,57.80
2017-08-04T08:42:02.255Z,55.88
2017-08-04T08:43:01.626Z,55.81
2017-08-04T08:44:01.618Z,57.45
2017-08-04T08:45:01.614Z,56.77
2017-08-04T08:46:01.605Z,57.45
2017-08-04T08:47:01.599Z,57.15
2017-08-04T08:48:04.622Z,57.35
2017-08-04T08:49:02.223Z,58.02
2017-08-04T08:50:01.697Z,57.45
2017-08-04T08:51:01.995Z,57.83
2017-08-04T08:52:01.572Z,58.12
2017-08-04T08:53:01.701Z,58.31
2017-08-04T08:54:03.148Z,57.35
2017-08-04T08:55:02.332Z,56.48
2017-08-04T08:56:01.576Z,56.77
2017-08-04T08:57:01.545Z,56.67
2017-08-04T08:58:01.532Z,57.15
2017-08-04T08:59:01.528Z,57.73
2017-08-04T09:00:02.736Z,58.02
2017-08-04T09:01:02.299Z,57.35
2017-08-04T09:02:02.625Z,58.12
2017-08-04T09:03:02.251Z,59.08
2017-08-04T09:04:04.985Z,57.15
2017-08-04T09:05:01.507Z,55.81
2017-08-04T09:06:01.619Z,57.83
2017-08-04T09:07:01.877Z,56.87
2017-08-04T09:08:02.236Z,56.22
2017-08-04T09:09:02.092Z,55.83
2017-08-04T09:10:02.236Z,56.03
2017-08-04T09:11:01.565Z,56.77
2017-08-04T09:12:01.577Z,56.58
2017-08-04T09:13:03.007Z,57.25
2017-08-04T09:14:01.816Z,56.90
2017-08-04T09:15:01.994Z,56.96
2017-08-04T09:16:02.458Z,57.67
2017-08-04T09:17:01.933Z,55.93
2017-08-04T09:18:01.781Z,57.67
2017-08-04T09:19:02.194Z,57.37
2017-08-04T09:20:01.659Z,54.68
2017-08-04T09:21:01.701Z,54.97
2017-08-04T09:22:01.827Z,56.10
2017-08-04T09:23:01.837Z,55.71
2017-08-04T09:24:02.126Z,55.04
2017-08-04T09:25:01.434Z,55.81
2017-08-04T09:26:01.388Z,55.90
2017-08-04T09:27:01.351Z,56.87
2017-08-04T09:28:05.571Z,56.20
2017-08-04T09:29:02.150Z,56.10
2017-08-04T09:30:01.337Z,56.00
2017-08-04T09:31:01.323Z,56.29
2017-08-04T09:32:01.323Z,56.96
2017-08-04T09:33:01.320Z,57.73
2017-08-04T09:34:01.334Z,57.54
2017-08-04T09:35:01.302Z,57.06
2017-08-04T09:36:01.300Z,57.73
2017-08-04T09:37:02.118Z,57.83
2017-08-04T09:38:02.092Z,57.35
2017-08-04T09:39:02.749Z,57.83
2017-08-04T09:40:01.756Z,58.40
2017-08-04T09:41:01.432Z,58.98
2017-08-04T09:42:01.260Z,58.70
2017-08-04T09:43:01.248Z,58.02
2017-08-04T09:44:01.245Z,57.25
2017-08-04T09:45:02.331Z,56.77
2017-08-04T09:46:01.357Z,57.25
2017-08-04T09:47:02.021Z,57.45
2017-08-04T09:48:02.015Z,57.73
2017-08-04T09:49:01.232Z,57.45
2017-08-04T09:50:01.623Z,57.15
2017-08-04T09:51:01.616Z,56.80
2017-08-04T09:52:01.965Z,57.35
2017-08-04T09:53:01.620Z,57.47
2017-08-04T09:54:01.184Z,57.86
2017-08-04T09:55:01.689Z,56.80
2017-08-04T09:56:01.199Z,56.03
2017-08-04T09:57:01.164Z,56.70
2017-08-04T09:58:01.164Z,56.12
2017-08-04T09:59:01.150Z,57.15
2017-08-04T10:00:01.158Z,56.80
2017-08-04T10:01:02.768Z,56.99
2017-08-04T10:02:01.893Z,56.67
2017-08-04T10:03:02.448Z,56.80
2017-08-04T10:04:01.914Z,56.99
2017-08-04T10:05:03.650Z,57.37
2017-08-04T10:06:02.553Z,56.90
2017-08-04T10:07:03.498Z,56.12
2017-08-04T10:08:01.117Z,56.12
2017-08-04T10:09:01.192Z,55.65
2017-08-04T10:10:01.089Z,54.49
2017-08-04T10:11:01.089Z,55.83
2017-08-04T10:12:01.083Z,56.80
2017-08-04T10:13:01.437Z,56.99
2017-08-04T10:14:01.864Z,56.03
2017-08-04T10:15:01.781Z,56.03
2017-08-04T10:16:01.246Z,56.51
2017-08-04T10:17:01.323Z,56.60
2017-08-04T10:18:01.384Z,56.32
2017-08-04T10:19:01.271Z,55.35
2017-08-04T10:20:01.038Z,55.65
2017-08-04T10:21:01.425Z,56.51
2017-08-04T10:22:01.022Z,56.22
2017-08-04T10:23:01.014Z,55.81
2017-08-04T10:24:01.009Z,56.32
2017-08-04T10:25:01.004Z,56.03
2017-08-04T10:26:01.004Z,56.80
2017-08-04T10:27:01.399Z,56.96
2017-08-04T10:28:00.993Z,56.80
2017-08-04T10:29:00.979Z,57.06
2017-08-04T10:30:00.973Z,57.18
2017-08-04T10:31:00.966Z,56.58
2017-08-04T10:32:00.962Z,56.03
2017-08-04T10:33:00.989Z,56.22
2017-08-04T10:34:00.946Z,56.38
2017-08-04T10:35:00.945Z,57.06
2017-08-04T10:36:00.940Z,57.37
2017-08-04T10:37:01.242Z,57.28
2017-08-04T10:38:00.923Z,56.60
2017-08-04T10:39:00.919Z,55.93
2017-08-04T10:40:00.920Z,56.90
2017-08-04T10:41:00.906Z,56.99
2017-08-04T10:42:00.903Z,57.95
2017-08-04T10:43:01.208Z,56.32
2017-08-04T10:44:00.891Z,57.28
2017-08-04T10:45:00.953Z,57.28
2017-08-04T10:46:00.876Z,57.89
2017-08-04T10:47:01.614Z,56.35
2017-08-04T10:48:01.649Z,55.67
2017-08-04T10:49:03.906Z,56.73
2017-08-04T10:50:01.600Z,57.60
2017-08-04T10:51:01.071Z,57.31
2017-08-04T10:52:01.305Z,56.92
2017-08-04T10:53:01.624Z,55.87
2017-08-04T10:54:00.836Z,56.44
2017-08-04T10:55:01.120Z,56.82
2017-08-04T10:56:00.827Z,56.60
2017-08-04T10:57:00.810Z,56.51
2017-08-04T10:58:01.775Z,55.83
2017-08-04T10:59:01.565Z,55.65
2017-08-04T11:00:01.119Z,56.12
2017-08-04T11:01:01.163Z,57.28
2017-08-04T11:02:00.784Z,56.80
2017-08-04T11:03:00.782Z,56.60
2017-08-04T11:04:00.771Z,57.47
2017-08-04T11:05:01.594Z,57.57
2017-08-04T11:06:01.495Z,57.95
2017-08-04T11:07:01.323Z,57.86
2017-08-04T11:08:01.164Z,57.28
2017-08-04T11:09:01.237Z,57.09
2017-08-04T11:10:01.109Z,57.57
2017-08-04T11:11:01.192Z,57.18
2017-08-04T11:12:02.059Z,57.28
2017-08-04T11:13:01.887Z,57.67
2017-08-04T11:14:00.817Z,57.86
2017-08-04T11:15:00.721Z,56.90
2017-08-04T11:16:00.712Z,57.47
2017-08-04T11:17:00.690Z,57.60
2017-08-04T11:18:00.686Z,56.92
2017-08-04T11:19:02.270Z,57.50
2017-08-04T11:20:01.404Z,57.50
2017-08-04T11:21:00.817Z,58.17
2017-08-04T11:22:00.837Z,57.40
2017-08-04T11:23:00.923Z,57.02
2017-08-04T11:24:00.983Z,56.73
2017-08-04T11:25:01.950Z,56.35
2017-08-04T11:26:00.820Z,56.73
2017-08-04T11:27:00.779Z,56.54
2017-08-04T11:28:00.867Z,56.15
2017-08-04T11:29:00.957Z,58.15
2017-08-04T11:30:02.141Z,57.50
2017-08-04T11:31:01.410Z,56.44
2017-08-04T11:32:00.614Z,57.02
2017-08-04T11:33:00.667Z,57.50
2017-08-04T11:34:01.392Z,57.40
2017-08-04T11:35:00.878Z,57.31
2017-08-04T11:36:01.093Z,57.50
2017-08-04T11:37:00.576Z,56.73
2017-08-04T11:38:00.578Z,56.05
2017-08-04T11:39:00.570Z,57.60
2017-08-04T11:40:00.566Z,57.12
2017-08-04T11:41:00.563Z,57.43
2017-08-04T11:42:00.849Z,57.92
2017-08-04T11:43:00.544Z,56.37
2017-08-04T11:44:01.316Z,56.95
2017-08-04T11:45:00.751Z,55.89
2017-08-04T11:46:01.333Z,56.27
2017-08-04T11:47:02.087Z,55.99
2017-08-04T11:48:01.611Z,56.37
2017-08-04T11:49:01.158Z,55.79
2017-08-04T11:50:01.297Z,55.12
2017-08-04T11:51:01.281Z,56.09
2017-08-04T11:52:00.510Z,55.89
2017-08-04T11:53:00.496Z,56.37
2017-08-04T11:54:00.839Z,57.05
2017-08-04T11:55:00.485Z,55.70
2017-08-04T11:56:00.477Z,56.47
2017-08-04T11:57:00.480Z,55.02
2017-08-04T11:58:00.464Z,55.02
2017-08-04T11:59:00.462Z,55.89
2017-08-04T12:00:00.489Z,56.85
2017-08-04T12:01:00.460Z,57.05
2017-08-04T12:02:00.439Z,55.99
2017-08-04T12:03:00.437Z,56.47
2017-08-04T12:04:00.894Z,55.79
2017-08-04T12:05:00.428Z,55.02
2017-08-04T12:06:00.424Z,56.66
2017-08-04T12:07:00.413Z,57.37
2017-08-04T12:08:00.412Z,56.40
2017-08-04T12:09:00.408Z,56.49
2017-08-04T12:10:00.757Z,55.82
2017-08-04T12:11:00.396Z,54.47
2017-08-04T12:12:00.398Z,54.57
2017-08-04T12:13:00.384Z,53.99
2017-08-04T12:14:00.387Z,55.34
2017-08-04T12:15:00.377Z,54.47
2017-08-04T12:16:00.601Z,56.01
2017-08-04T12:17:00.367Z,54.66
2017-08-04T12:18:00.363Z,54.66
2017-08-04T12:19:00.358Z,54.28
2017-08-04T12:20:00.351Z,54.86
2017-08-04T12:21:00.346Z,54.96
2017-08-04T12:22:00.742Z,56.21
2017-08-04T12:23:00.340Z,55.15
2017-08-04T12:24:00.334Z,55.54
2017-08-04T12:25:00.336Z,56.11
2017-08-04T12:26:00.323Z,56.30
2017-08-04T12:27:00.316Z,54.66
2017-08-04T12:28:00.612Z,55.05
2017-08-04T12:29:00.315Z,54.57
2017-08-04T12:30:00.300Z,55.05
2017-08-04T12:31:00.302Z,55.73
2017-08-04T12:32:00.290Z,55.34
2017-08-04T12:33:00.290Z,56.24
2017-08-04T12:34:00.656Z,56.72
2017-08-04T12:35:00.285Z,56.52
2017-08-04T12:36:00.269Z,56.24
2017-08-04T12:37:00.270Z,53.53
2017-08-04T12:38:00.260Z,55.08
2017-08-04T12:39:00.260Z,54.21
2017-08-04T12:40:00.595Z,54.50
2017-08-04T12:41:00.248Z,54.88
2017-08-04T12:42:00.243Z,54.11
2017-08-04T12:43:00.242Z,55.08
2017-08-04T12:44:00.234Z,53.44
2017-08-04T12:45:00.230Z,54.21
2017-08-04T12:46:00.265Z,54.79
2017-08-04T12:47:00.216Z,53.15
2017-08-04T12:48:00.828Z,52.37
2017-08-04T12:49:00.207Z,52.67
2017-08-04T12:50:01.093Z,52.47
2017-08-04T12:51:00.305Z,52.09
2017-08-04T12:52:00.368Z,51.73